createdAt,value
2023-03-21T00:01:54.960Z,38.90
2023-03-21T00:04:33.182Z,35.40
2023-03-21T00:07:09.014Z,37.70
2023-03-21T00:09:39.897Z,38.80
2023-03-21T00:12:11.935Z,38.70
2023-03-21T00:14:43.506Z,38.50
2023-03-21T00:17:16.000Z,34.70
2023-03-21T00:19:46.889Z,34.20
2023-03-21T00:22:17.780Z,39.70
2023-03-21T00:24:48.780Z,34.40
2023-03-21T00:27:42.964Z,37.20
2023-03-21T00:30:14.206Z,37.90
2023-03-21T00:32:55.432Z,34.10
2023-03-21T00:35:57.864Z,34.80
2023-03-21T00:38:27.891Z,43.40
2023-03-21T00:41:04.722Z,36.00
2023-03-21T00:43:38.862Z,37.50
2023-03-21T00:46:10.226Z,37.50
2023-03-21T00:48:41.578Z,44.70
2023-03-21T00:51:26.182Z,36.10
2023-03-21T00:54:01.155Z,39.70
2023-03-21T00:59:02.136Z,39.10
2023-03-21T01:01:33.204Z,42.90
2023-03-21T01:04:05.848Z,41.20
2023-03-21T01:06:40.284Z,40.40
2023-03-21T01:09:15.966Z,34.90
2023-03-21T01:11:47.679Z,41.00
2023-03-21T01:14:23.519Z,34.80
2023-03-21T01:16:55.487Z,35.40
2023-03-21T01:19:48.278Z,38.60
2023-03-21T01:22:19.501Z,39.80
2023-03-21T01:24:55.379Z,34.70
2023-03-21T01:27:29.466Z,37.90
2023-03-21T01:30:00.716Z,36.60
2023-03-21T01:32:31.625Z,35.60
2023-03-21T01:35:10.860Z,39.30
2023-03-21T01:37:46.533Z,37.40
2023-03-21T01:40:30.447Z,34.20
2023-03-21T01:43:32.980Z,37.90
2023-03-21T01:46:27.315Z,35.80
2023-03-21T01:49:14.135Z,35.90
2023-03-21T01:51:48.979Z,43.60
2023-03-21T01:54:27.207Z,37.40
2023-03-21T01:57:01.881Z,37.90
2023-03-21T01:59:42.312Z,35.30
2023-03-21T02:02:21.035Z,36.80
2023-03-21T02:05:07.210Z,37.60
2023-03-21T02:07:41.984Z,35.40
2023-03-21T02:10:16.197Z,32.30
2023-03-21T02:12:57.602Z,42.10
2023-03-21T02:15:37.099Z,35.10
2023-03-21T02:18:33.015Z,30.70
2023-03-21T02:21:54.431Z,41.90
2023-03-21T02:25:04.197Z,31.90
2023-03-21T02:27:43.833Z,34.10
2023-03-21T02:30:59.669Z,44.70
2023-03-21T02:33:51.209Z,34.20
2023-03-21T02:36:34.117Z,42.70
2023-03-21T02:39:13.695Z,37.00
2023-03-21T02:41:49.778Z,29.80
2023-03-21T02:44:39.448Z,30.30
2023-03-21T02:47:14.405Z,31.70
2023-03-21T02:49:53.546Z,28.80
2023-03-21T02:52:37.804Z,25.90
2023-03-21T02:55:15.835Z,29.50
2023-03-21T02:58:13.277Z,27.80
2023-03-21T03:00:55.612Z,32.80
2023-03-21T03:03:37.129Z,28.70
2023-03-21T03:06:21.343Z,29.10
2023-03-21T03:09:08.356Z,27.90
2023-03-21T03:11:42.978Z,29.10
2023-03-21T03:14:49.813Z,23.90
2023-03-21T03:17:37.450Z,31.90
2023-03-21T03:20:25.774Z,25.00
2023-03-21T03:23:04.721Z,28.50
2023-03-21T03:25:43.865Z,28.20
2023-03-21T03:28:23.792Z,25.70
2023-03-21T03:31:08.806Z,28.20
2023-03-21T03:33:59.440Z,24.30
2023-03-21T03:36:37.036Z,27.40
2023-03-21T03:39:33.075Z,25.20
2023-03-21T03:42:21.679Z,28.60
2023-03-21T03:45:02.571Z,24.10
2023-03-21T03:47:50.775Z,24.20
2023-03-21T03:50:33.054Z,28.50
2023-03-21T03:53:17.729Z,24.10
2023-03-21T03:55:51.367Z,26.00
2023-03-21T03:58:27.449Z,24.30
2023-03-21T04:01:04.669Z,23.90
2023-03-21T04:03:48.503Z,25.50
2023-03-21T04:06:22.280Z,25.70
2023-03-21T04:08:53.849Z,26.10
2023-03-21T04:11:25.386Z,23.90
2023-03-21T04:13:57.714Z,22.60
2023-03-21T04:16:32.839Z,26.40
2023-03-21T04:19:05.777Z,21.40
2023-03-21T04:21:37.354Z,23.40
2023-03-21T04:24:09.101Z,24.50
2023-03-21T04:26:40.802Z,28.10
2023-03-21T04:29:26.145Z,23.30
2023-03-21T04:32:27.028Z,22.40
2023-03-21T04:35:09.882Z,24.20
2023-03-21T04:37:41.683Z,21.80
2023-03-21T04:40:19.071Z,26.10
2023-03-21T04:42:51.462Z,23.20
2023-03-21T04:45:22.476Z,26.30
2023-03-21T04:47:53.557Z,26.10
2023-03-21T04:50:24.586Z,24.10
2023-03-21T04:52:55.555Z,22.70
2023-03-21T04:55:28.144Z,24.90
2023-03-21T04:57:59.822Z,25.50
2023-03-21T05:00:37.663Z,23.00
2023-03-21T05:03:10.245Z,20.80
2023-03-21T05:05:41.433Z,21.30
2023-03-21T05:08:13.305Z,22.10
2023-03-21T05:10:44.869Z,20.00
2023-03-21T05:13:16.097Z,20.80
2023-03-21T05:15:47.172Z,19.90
2023-03-21T05:18:25.050Z,17.50
2023-03-21T05:21:10.785Z,18.40
2023-03-21T05:23:42.249Z,18.80
2023-03-21T05:26:13.887Z,23.20
2023-03-21T05:29:00.494Z,19.40
2023-03-21T05:31:39.271Z,20.60
2023-03-21T05:34:14.529Z,18.20
2023-03-21T05:37:00.164Z,19.80
2023-03-21T05:39:43.110Z,17.70
2023-03-21T05:42:19.688Z,18.30
2023-03-21T05:44:51.138Z,20.50
2023-03-21T05:49:59.942Z,17.60
2023-03-21T05:52:33.538Z,18.10
2023-03-21T05:55:12.636Z,18.90
2023-03-21T05:57:43.614Z,18.50
2023-03-21T06:00:24.470Z,15.20
2023-03-21T06:03:05.323Z,18.80
2023-03-21T06:05:49.212Z,17.30
2023-03-21T06:08:24.381Z,16.10
2023-03-21T06:10:55.887Z,16.90
2023-03-21T06:13:27.410Z,17.00
2023-03-21T06:15:59.243Z,17.20
2023-03-21T06:18:30.585Z,16.90
2023-03-21T06:21:20.784Z,18.00
2023-03-21T06:23:55.140Z,16.90
2023-03-21T06:26:30.595Z,17.00
2023-03-21T06:29:01.946Z,14.20
2023-03-21T06:31:34.370Z,16.30
2023-03-21T06:34:06.689Z,12.60
2023-03-21T06:36:40.036Z,13.00
2023-03-21T06:39:11.603Z,14.70
2023-03-21T06:41:43.968Z,14.20
2023-03-21T06:44:15.438Z,17.40
2023-03-21T06:46:53.624Z,14.30
2023-03-21T06:49:24.663Z,17.10
2023-03-21T06:51:55.828Z,16.50
2023-03-21T06:54:28.124Z,15.50
2023-03-21T06:57:05.398Z,16.40
2023-03-21T06:59:41.715Z,15.60
2023-03-21T07:02:15.401Z,14.30
2023-03-21T07:05:04.890Z,13.20
2023-03-21T07:07:36.030Z,14.60
2023-03-21T07:10:08.032Z,12.00
2023-03-21T07:12:49.943Z,14.00
2023-03-21T07:15:41.865Z,14.20
2023-03-21T07:18:12.935Z,13.80
2023-03-21T07:20:48.465Z,11.70
2023-03-21T07:23:20.493Z,13.60
2023-03-21T07:25:52.596Z,13.10
2023-03-21T07:28:31.476Z,13.50
2023-03-21T07:31:14.536Z,10.80
2023-03-21T07:33:46.361Z,11.70
2023-03-21T07:36:39.864Z,11.70
2023-03-21T07:39:21.114Z,11.10
2023-03-21T07:41:52.253Z,13.80
2023-03-21T07:44:38.460Z,13.40
2023-03-21T07:47:15.436Z,12.20
2023-03-21T07:52:42.229Z,21.50
2023-03-21T07:55:17.463Z,10.50
2023-03-21T07:57:57.926Z,13.90
2023-03-21T08:00:32.745Z,10.40
2023-03-21T08:03:12.247Z,10.80
2023-03-21T08:05:45.508Z,10.70
2023-03-21T08:08:18.968Z,9.60
2023-03-21T08:11:15.069Z,11.10
2023-03-21T08:13:50.421Z,11.40
2023-03-21T08:16:24.358Z,11.90
2023-03-21T08:18:57.663Z,12.00
2023-03-21T08:21:28.836Z,13.70
2023-03-21T08:23:59.829Z,10.50
2023-03-21T08:26:32.324Z,10.80
2023-03-21T08:29:04.043Z,12.30
2023-03-21T08:31:36.357Z,11.90
2023-03-21T08:34:07.742Z,10.40
2023-03-21T08:36:40.860Z,10.80
2023-03-21T08:40:07.165Z,10.10
2023-03-21T08:42:38.651Z,10.40
2023-03-21T08:45:14.558Z,8.40
2023-03-21T08:47:47.115Z,8.40
2023-03-21T08:50:23.554Z,9.20
2023-03-21T08:52:54.865Z,10.40
2023-03-21T08:55:25.910Z,7.40
2023-03-21T08:57:58.348Z,8.40
2023-03-21T09:00:29.830Z,13.20
2023-03-21T09:03:14.297Z,10.10
2023-03-21T09:05:54.173Z,11.90
2023-03-21T09:08:27.713Z,8.10
2023-03-21T09:10:59.195Z,6.70
2023-03-21T09:13:30.243Z,7.80
2023-03-21T09:16:01.499Z,9.40
2023-03-21T09:18:45.466Z,9.10
2023-03-21T09:21:28.441Z,7.40
2023-03-21T09:24:09.154Z,7.00
2023-03-21T09:26:41.853Z,8.20
2023-03-21T09:29:16.735Z,8.10
2023-03-21T09:31:48.458Z,9.60
2023-03-21T09:34:19.760Z,8.80
2023-03-21T09:36:56.754Z,8.20
2023-03-21T09:39:32.042Z,6.60
2023-03-21T09:42:26.825Z,9.50
2023-03-21T09:45:09.358Z,8.00
2023-03-21T09:47:53.454Z,8.30
2023-03-21T09:50:32.041Z,9.80
2023-03-21T09:53:07.256Z,8.40
2023-03-21T09:58:29.221Z,7.90
2023-03-21T10:01:10.706Z,8.90
2023-03-21T10:03:44.025Z,9.30
2023-03-21T10:06:19.676Z,10.60
2023-03-21T10:08:52.613Z,9.20
2023-03-21T10:11:28.623Z,8.40
2023-03-21T10:14:04.994Z,8.60
2023-03-21T10:16:40.954Z,6.20
2023-03-21T10:19:18.154Z,6.40
2023-03-21T10:22:02.160Z,5.70
2023-03-21T10:24:36.386Z,5.80
2023-03-21T10:27:08.342Z,7.80
2023-03-21T10:29:44.835Z,7.70
2023-03-21T10:32:23.015Z,8.60
2023-03-21T10:37:36.585Z,4.50
2023-03-21T10:40:18.602Z,6.10
2023-03-21T10:42:50.774Z,6.50
2023-03-21T10:45:23.888Z,5.60
2023-03-21T10:48:01.605Z,5.90
2023-03-21T10:50:33.115Z,5.90
2023-03-21T10:53:04.684Z,6.80
2023-03-21T10:55:42.059Z,5.30
2023-03-21T10:58:25.194Z,4.60
2023-03-21T11:01:02.196Z,7.40
2023-03-21T11:03:39.618Z,5.90
2023-03-21T11:06:16.187Z,6.70
2023-03-21T11:08:51.386Z,6.70
2023-03-21T11:14:07.214Z,6.50
2023-03-21T11:17:27.798Z,9.10
2023-03-21T11:28:17.924Z,5.60
2023-03-21T11:30:58.229Z,7.00
2023-03-21T11:34:06.272Z,7.50
2023-03-21T11:36:40.907Z,6.50
2023-03-21T11:39:32.127Z,6.20
2023-03-21T11:42:03.510Z,5.50
2023-03-21T11:44:42.684Z,6.30
2023-03-21T11:47:14.756Z,5.30
2023-03-21T11:49:55.698Z,6.30
2023-03-21T11:52:45.826Z,6.90
2023-03-21T11:55:43.340Z,14.90
2023-03-21T11:58:28.091Z,6.10
2023-03-21T12:01:04.918Z,6.70
2023-03-21T12:03:56.933Z,5.80
2023-03-21T12:06:36.204Z,5.10
2023-03-21T12:09:18.693Z,6.00
2023-03-21T12:12:03.885Z,7.10
2023-03-21T12:14:48.698Z,6.50
2023-03-21T12:17:31.902Z,6.70
2023-03-21T12:20:22.983Z,5.20
2023-03-21T12:23:06.798Z,5.80
2023-03-21T12:25:46.043Z,5.60
2023-03-21T12:28:33.214Z,6.80
2023-03-21T12:31:12.809Z,5.90
2023-03-21T12:33:58.970Z,8.40
2023-03-21T12:36:45.013Z,7.00
2023-03-21T12:39:30.608Z,6.40
2023-03-21T12:44:44.797Z,7.40
2023-03-21T12:47:21.455Z,5.70
2023-03-21T12:50:02.741Z,5.20
2023-03-21T12:52:38.282Z,5.50
2023-03-21T12:55:19.968Z,4.30
2023-03-21T12:57:57.960Z,4.80
2023-03-21T13:00:35.582Z,6.60
2023-03-21T13:03:13.409Z,5.60
2023-03-21T13:05:58.349Z,5.40
2023-03-21T13:08:35.006Z,5.80
2023-03-21T13:11:12.083Z,7.80
2023-03-21T13:13:49.064Z,6.20
2023-03-21T13:16:27.252Z,6.20
2023-03-21T13:19:04.294Z,5.70
2023-03-21T13:21:46.419Z,7.10
2023-03-21T13:24:33.929Z,6.00
2023-03-21T13:27:11.951Z,6.40
2023-03-21T13:29:52.125Z,7.80
2023-03-21T13:32:30.576Z,5.60
2023-03-21T13:35:05.866Z,5.20
2023-03-21T13:37:51.713Z,5.10
2023-03-21T13:40:29.363Z,5.00
2023-03-21T13:43:03.937Z,9.00
2023-03-21T13:45:46.629Z,7.40
2023-03-21T13:48:31.656Z,4.50
2023-03-21T13:51:07.717Z,9.10
2023-03-21T13:53:43.928Z,7.20
2023-03-21T13:56:25.891Z,7.80
2023-03-21T13:59:11.210Z,6.40
2023-03-21T14:02:02.079Z,6.50
2023-03-21T14:04:42.551Z,5.90
2023-03-21T14:07:28.788Z,5.60
2023-03-21T14:10:05.198Z,5.50
2023-03-21T14:13:02.066Z,6.80
2023-03-21T14:15:43.737Z,6.70
2023-03-21T14:18:35.274Z,5.30
2023-03-21T14:21:24.688Z,5.80
2023-03-21T14:24:13.218Z,6.70
2023-03-21T14:26:47.551Z,6.30
2023-03-21T14:29:27.107Z,8.00
2023-03-21T14:32:00.584Z,6.40
2023-03-21T14:34:36.348Z,6.50
2023-03-21T14:37:13.608Z,7.60
2023-03-21T14:39:44.854Z,7.10
2023-03-21T14:42:17.906Z,8.30
2023-03-21T14:44:55.272Z,7.50
2023-03-21T14:47:29.585Z,7.70
2023-03-21T14:50:02.116Z,5.40
2023-03-21T14:52:35.659Z,5.80
2023-03-21T14:55:16.252Z,6.60
2023-03-21T14:57:48.046Z,5.80
2023-03-21T15:00:24.877Z,5.50
2023-03-21T15:02:58.991Z,7.60
2023-03-21T15:05:33.187Z,5.10
2023-03-21T15:08:09.230Z,5.00
2023-03-21T15:10:40.922Z,4.80
2023-03-21T15:13:20.631Z,6.30
2023-03-21T15:15:52.300Z,5.00
2023-03-21T15:18:27.517Z,4.80
2023-03-21T15:23:32.894Z,7.40
2023-03-21T15:26:07.025Z,6.40
2023-03-21T15:28:38.468Z,15.30
2023-03-21T15:31:22.309Z,8.00
2023-03-21T15:33:55.319Z,5.80
2023-03-21T15:36:32.742Z,5.30
2023-03-21T15:39:14.509Z,5.90
2023-03-21T15:42:00.194Z,6.00
2023-03-21T15:44:31.734Z,5.50
2023-03-21T15:47:03.186Z,7.70
2023-03-21T15:49:41.441Z,5.40
2023-03-21T15:52:17.710Z,7.10
2023-03-21T15:54:57.652Z,5.90
2023-03-21T15:57:33.006Z,5.10
2023-03-21T16:00:18.592Z,6.40
2023-03-21T16:05:28.571Z,7.00
2023-03-21T16:08:24.394Z,7.00
2023-03-21T16:10:55.597Z,8.00
2023-03-21T16:13:26.726Z,12.80
2023-03-21T16:15:57.818Z,6.30
2023-03-21T16:18:30.775Z,6.40
2023-03-21T16:21:02.253Z,5.80
2023-03-21T16:23:34.037Z,12.00
2023-03-21T16:26:05.378Z,7.70
2023-03-21T16:28:39.899Z,8.50
2023-03-21T16:31:15.219Z,7.40
2023-03-21T16:33:46.622Z,8.00
2023-03-21T16:36:20.222Z,7.90
2023-03-21T16:38:53.132Z,7.50
2023-03-21T16:41:25.954Z,10.60
2023-03-21T16:44:01.429Z,8.30
2023-03-21T16:46:32.537Z,10.00
2023-03-21T16:49:04.982Z,9.50
2023-03-21T16:51:39.198Z,8.90
2023-03-21T16:54:13.014Z,9.10
2023-03-21T16:56:46.701Z,9.70
2023-03-21T16:59:18.327Z,10.20
2023-03-21T17:01:56.634Z,9.10
2023-03-21T17:04:30.432Z,13.50
2023-03-21T17:07:03.268Z,13.50
2023-03-21T17:09:34.525Z,12.10
2023-03-21T17:12:10.639Z,10.20
2023-03-21T17:14:42.117Z,13.00
2023-03-21T17:17:27.328Z,10.40
2023-03-21T17:19:58.457Z,11.50
2023-03-21T17:22:32.468Z,10.20
2023-03-21T17:25:04.010Z,12.30
2023-03-21T17:27:35.144Z,10.10
2023-03-21T17:30:13.400Z,12.20
2023-03-21T17:32:44.768Z,12.20
2023-03-21T17:35:16.434Z,10.70
2023-03-21T17:37:50.637Z,12.20
2023-03-21T17:40:25.200Z,10.70
2023-03-21T17:42:58.136Z,11.40
2023-03-21T17:45:29.858Z,11.90
2023-03-21T17:48:01.112Z,13.00
2023-03-21T17:50:37.316Z,10.70
2023-03-21T17:53:09.004Z,11.10
2023-03-21T17:55:40.760Z,12.50
2023-03-21T17:58:13.051Z,9.50
2023-03-21T18:00:46.515Z,11.60
2023-03-21T18:03:18.675Z,17.70
2023-03-21T18:05:51.029Z,11.30
2023-03-21T18:08:22.180Z,15.50
2023-03-21T18:10:54.099Z,15.90
2023-03-21T18:13:25.375Z,12.60
2023-03-21T18:15:59.761Z,17.50
2023-03-21T18:18:31.106Z,16.90
2023-03-21T18:21:02.771Z,11.60
2023-03-21T18:24:10.766Z,14.60
2023-03-21T18:26:48.687Z,12.50
2023-03-21T18:30:25.654Z,14.60
2023-03-21T18:32:41.313Z,11.60
2023-03-21T18:35:17.941Z,15.40
2023-03-21T18:37:49.442Z,18.80
2023-03-21T18:40:24.295Z,17.50
2023-03-21T18:43:49.944Z,13.80
2023-03-21T18:45:47.615Z,15.40
2023-03-21T18:48:19.358Z,17.00
2023-03-21T18:50:51.644Z,16.10
2023-03-21T18:53:23.585Z,16.80
2023-03-21T18:55:54.746Z,17.80
2023-03-21T18:58:29.478Z,17.80
2023-03-21T19:01:04.014Z,13.80
2023-03-21T19:06:11.792Z,13.60
2023-03-21T19:08:43.840Z,13.40
2023-03-21T19:11:15.926Z,15.30
2023-03-21T19:13:47.039Z,15.30
2023-03-21T19:16:18.905Z,14.20
2023-03-21T19:18:58.739Z,15.50
2023-03-21T19:21:30.060Z,16.60
2023-03-21T19:24:26.592Z,15.00
2023-03-21T19:26:52.572Z,14.20
2023-03-21T19:29:26.604Z,17.10
2023-03-21T19:35:37.311Z,15.80
2023-03-21T19:38:08.926Z,18.20
2023-03-21T19:40:42.720Z,25.30
2023-03-21T19:43:32.766Z,19.60
2023-03-21T19:46:04.913Z,17.20
2023-03-21T19:48:38.146Z,15.00
2023-03-21T19:51:28.704Z,17.20
2023-03-21T19:54:01.556Z,18.70
2023-03-21T19:56:34.535Z,12.20
2023-03-21T20:03:27.866Z,16.50
2023-03-21T20:06:06.983Z,16.20
2023-03-21T20:09:05.290Z,20.20
2023-03-21T20:11:30.694Z,23.00
2023-03-21T20:14:03.398Z,20.80
2023-03-21T20:16:37.081Z,24.30
2023-03-21T20:19:10.388Z,24.80
2023-03-21T20:21:49.757Z,34.30
2023-03-21T20:24:26.400Z,26.00
2023-03-21T20:26:59.140Z,24.20
2023-03-21T20:32:24.377Z,25.40
2023-03-21T20:35:07.390Z,28.40
2023-03-21T20:37:51.848Z,28.10
2023-03-21T20:40:24.395Z,24.20
2023-03-21T20:42:59.931Z,23.60
2023-03-21T20:45:32.678Z,22.20
2023-03-21T20:48:29.962Z,27.80
2023-03-21T20:51:39.280Z,23.20
2023-03-21T20:53:58.175Z,26.80
2023-03-21T20:56:30.889Z,25.50
2023-03-21T20:59:17.346Z,25.40
2023-03-21T21:01:55.854Z,29.20
2023-03-21T21:07:27.671Z,38.50
2023-03-21T21:09:58.933Z,30.30
2023-03-21T21:12:30.696Z,33.70
2023-03-21T21:15:02.046Z,30.00
2023-03-21T21:18:01.964Z,29.90
2023-03-21T21:20:25.362Z,33.00
2023-03-21T21:23:00.159Z,35.70
2023-03-21T21:25:34.920Z,33.30
2023-03-21T21:28:09.679Z,30.90
2023-03-21T21:30:42.847Z,30.30
2023-03-21T21:33:15.425Z,34.60
2023-03-21T21:35:48.737Z,36.90
2023-03-21T21:38:21.967Z,41.90
2023-03-21T21:40:54.491Z,39.10
2023-03-21T21:43:25.850Z,43.50
2023-03-21T21:45:58.357Z,48.90
2023-03-21T21:48:29.564Z,44.50
2023-03-21T21:51:02.579Z,41.00
2023-03-21T21:53:33.929Z,53.40
2023-03-21T21:56:06.456Z,40.00
2023-03-21T21:58:39.286Z,36.80
2023-03-21T22:01:10.938Z,49.90
2023-03-21T22:03:46.375Z,44.10
2023-03-21T22:06:17.755Z,45.40
2023-03-21T22:08:51.973Z,49.90
2023-03-21T22:11:24.298Z,51.50
2023-03-21T22:13:56.113Z,52.40
2023-03-21T22:16:27.255Z,42.80
2023-03-21T22:18:58.351Z,63.20
2023-03-21T22:21:29.300Z,68.50
2023-03-21T22:24:00.233Z,52.70
2023-03-21T22:26:33.692Z,53.00
2023-03-21T22:29:08.458Z,49.10
2023-03-21T22:31:41.992Z,46.20
2023-03-21T22:34:12.994Z,46.60
2023-03-21T22:36:50.540Z,52.40
2023-03-21T22:39:26.242Z,48.30
2023-03-21T22:42:01.008Z,47.30
2023-03-21T22:44:35.020Z,49.50
2023-03-21T22:47:08.075Z,50.70
2023-03-21T22:49:39.994Z,45.40
2023-03-21T22:52:11.295Z,43.90
2023-03-21T22:54:42.541Z,52.70
2023-03-21T22:57:14.249Z,48.90
2023-03-21T22:59:45.366Z,52.30
2023-03-21T23:02:16.383Z,47.40
2023-03-21T23:04:47.491Z,48.60
2023-03-21T23:07:20.669Z,50.40
2023-03-21T23:09:51.928Z,48.30
2023-03-21T23:12:22.833Z,48.80
2023-03-21T23:14:53.826Z,45.90
2023-03-21T23:17:25.057Z,40.90
2023-03-21T23:19:55.965Z,45.30
2023-03-21T23:22:31.005Z,45.30
2023-03-21T23:25:02.633Z,43.40
2023-03-21T23:27:35.696Z,41.80
2023-03-21T23:30:08.123Z,45.30
2023-03-21T23:32:39.156Z,41.90
2023-03-21T23:35:11.990Z,46.10
2023-03-21T23:37:52.440Z,43.40
2023-03-21T23:40:23.826Z,47.10
2023-03-21T23:42:54.813Z,43.70
2023-03-21T23:45:25.793Z,44.40
2023-03-21T23:47:56.831Z,44.60
2023-03-21T23:50:27.766Z,48.70
2023-03-21T23:52:58.665Z,41.40
2023-03-21T23:55:29.853Z,47.20
2023-03-21T23:58:00.761Z,40.60
